Time;durP1;ratioP1;P1;durP2;ratioP2;P2;SDS_P1;SDS_P2;PMS_P1;PMS_P2;Temp;Humidity;BMP_temperature;BMP_pressure;BME280_temperature;BME280_humidity;BME280_pressure;Samples;Min_cycle;Max_cycle;Signal;HPM_P1;HPM_P2
2022/09/28 00:01:44;;;;;;;0.00;0.00;;;10.50;99.90;;;;;;5011004;28;20743;-72
2022/09/28 00:04:12;;;;;;;0.00;0.00;;;10.50;99.90;;;;;;5011676;28;20221;-71
2022/09/28 00:06:39;;;;;;;0.00;0.00;;;10.50;99.90;;;;;;5005788;28;20257;-70
2022/09/28 00:09:07;;;;;;;0.00;0.00;;;10.50;99.90;;;;;;5020878;28;20349;-72
2022/09/28 00:11:33;;;;;;;0.00;0.00;;;10.60;99.90;;;;;;5004904;28;20225;-72
2022/09/28 00:14:02;;;;;;;0.00;0.00;;;10.60;99.90;;;;;;5006184;28;20197;-71
2022/09/28 00:16:31;;;;;;;0.00;0.00;;;10.60;99.90;;;;;;5004452;28;20221;-71
2022/09/28 00:18:59;;;;;;;0.00;0.00;;;10.60;99.90;;;;;;5006369;28;20201;-72
2022/09/28 00:21:27;;;;;;;0.10;0.10;;;10.50;99.90;;;;;;5005957;28;20196;-72
2022/09/28 00:26:55;;;;;;;0.00;0.00;;;10.60;99.90;;;;;;4934497;29;20213;-72
2022/09/28 00:29:23;;;;;;;0.00;0.00;;;10.50;99.90;;;;;;4986503;28;20217;-72
2022/09/28 00:31:52;;;;;;;0.00;0.00;;;10.50;99.90;;;;;;5006022;28;20207;-72
2022/09/28 00:34:20;;;;;;;0.10;0.10;;;10.50;99.90;;;;;;5003095;28;20231;-72
2022/09/28 00:36:47;;;;;;;0.00;0.00;;;10.50;99.90;;;;;;5005678;28;20197;-73
2022/09/28 00:39:16;;;;;;;0.00;0.00;;;10.50;99.90;;;;;;5005591;28;20220;-72
2022/09/28 00:41:43;;;;;;;0.00;0.00;;;10.50;99.90;;;;;;5006168;28;20196;-72
2022/09/28 00:44:39;;;;;;;0.10;0.10;;;10.50;99.90;;;;;;5008083;28;20192;-71
2022/09/28 00:47:37;;;;;;;0.00;0.00;;;10.50;99.90;;;;;;5006933;28;20292;-72
2022/09/28 00:50:11;;;;;;;0.00;0.00;;;10.50;99.90;;;;;;5002878;28;20197;-72
2022/09/28 00:52:42;;;;;;;0.00;0.00;;;10.50;99.90;;;;;;5033887;28;20624;-72
2022/09/28 00:55:12;;;;;;;0.00;0.00;;;;;;;;;;5003261;28;20651;-71
2022/09/28 00:57:40;;;;;;;0.00;0.00;;;;;;;;;;5025557;28;20628;-72
2022/09/28 01:00:10;;;;;;;0.00;0.00;;;;;;;;;;5010242;28;20209;-71
2022/09/28 01:02:38;;;;;;;0.07;0.07;;;;;;;;;;5004804;28;20219;-71
2022/09/28 01:05:06;;;;;;;0.00;0.00;;;;;;;;;;5006224;28;20220;-71
2022/09/28 01:07:35;;;;;;;0.00;0.00;;;;;;;;;;5007024;28;20639;-71
2022/09/28 01:10:03;;;;;;;0.00;0.00;;;;;;;;;;5007892;28;20209;-72
2022/09/28 01:12:30;;;;;;;0.00;0.00;;;;;;;;;;5005383;28;20287;-72
2022/09/28 01:14:59;;;;;;;0.00;0.00;;;;;;;;;;5005642;28;20213;-71
2022/09/28 01:17:31;;;;;;;0.10;0.10;;;;;;;;;;5038336;28;20214;-70
2022/09/28 01:20:08;;;;;;;0.10;0.10;;;;;;;;;;5034267;28;20470;-72
2022/09/28 01:22:51;;;;;;;0.00;0.00;;;;;;;;;;5004887;28;20671;-72
2022/09/28 01:25:24;;;;;;;0.00;0.00;;;;;;;;;;4991032;28;20694;-72
2022/09/28 01:27:55;;;;;;;0.00;0.00;;;;;;;;;;5009692;28;20259;-71
2022/09/28 01:30:23;;;;;;;0.10;0.10;;;;;;;;;;5005504;28;20207;-71
2022/09/28 01:32:53;;;;;;;0.10;0.10;;;;;;;;;;5007147;28;20209;-71
2022/09/28 01:35:23;;;;;;;0.00;0.00;;;;;;;;;;5006752;28;20311;-71
2022/09/28 01:37:53;;;;;;;0.00;0.00;;;;;;;;;;5004824;28;20212;-70
2022/09/28 01:40:21;;;;;;;0.10;0.10;;;;;;;;;;5005959;28;20627;-72
2022/09/28 01:42:50;;;;;;;0.10;0.10;;;;;;;;;;5004597;28;20201;-71
2022/09/28 01:45:22;;;;;;;0.00;0.00;;;;;;;;;;5002449;28;20680;-72
2022/09/28 01:47:51;;;;;;;0.10;0.10;;;;;;;;;;5004375;28;20636;-71
2022/09/28 01:50:23;;;;;;;0.00;0.00;;;;;;;;;;5008939;28;20207;-73
2022/09/28 01:52:52;;;;;;;0.10;0.10;;;;;;;;;;5004655;28;20196;-72
2022/09/28 01:55:24;;;;;;;0.10;0.10;;;;;;;;;;5006125;28;20667;-70
2022/09/28 01:57:54;;;;;;;0.10;0.10;;;;;;;;;;5005556;28;20203;-72
2022/09/28 02:00:24;;;;;;;0.00;0.00;;;;;;;;;;5021103;28;21031;-72
2022/09/28 02:02:54;;;;;;;0.00;0.00;;;;;;;;;;5005950;28;20212;-72
2022/09/28 02:05:30;;;;;;;0.10;0.10;;;;;;;;;;5004272;28;20744;-71
2022/09/28 02:08:00;;;;;;;0.00;0.00;;;;;;;;;;5001727;28;20715;-72
2022/09/28 02:10:30;;;;;;;0.10;0.10;;;;;;;;;;5037729;28;20200;-72
2022/09/28 02:13:00;;;;;;;0.10;0.10;;;;;;;;;;5018129;28;20642;-72
2022/09/28 02:15:34;;;;;;;0.10;0.10;;;;;;;;;;5004505;28;20217;-71
2022/09/28 02:18:01;;;;;;;0.10;0.10;;;;;;;;;;5003073;28;20653;-72
2022/09/28 02:20:30;;;;;;;0.10;0.10;;;;;;;;;;5004456;28;20738;-72
2022/09/28 02:22:58;;;;;;;0.10;0.10;;;;;;;;;;5034399;28;20627;-72
2022/09/28 02:25:28;;;;;;;0.00;0.00;;;;;;;;;;5005918;28;20205;-72
2022/09/28 02:27:59;;;;;;;0.10;0.10;;;;;;;;;;5011601;28;20670;-71
2022/09/28 02:30:27;;;;;;;0.00;0.00;;;;;;;;;;5004048;28;20678;-72
2022/09/28 02:32:59;;;;;;;0.10;0.10;;;;;;;;;;5006374;28;20619;-72
2022/09/28 02:35:26;;;;;;;0.10;0.10;;;;;;;;;;5008765;28;20717;-71
2022/09/28 02:37:55;;;;;;;0.10;0.10;;;;;;;;;;5005534;28;20645;-71
2022/09/28 02:40:24;;;;;;;0.00;0.00;;;;;;;;;;5041368;28;20629;-72
2022/09/28 02:42:54;;;;;;;0.10;0.10;;;;;;;;;;5009216;28;20637;-72
2022/09/28 02:45:30;;;;;;;0.10;0.10;;;;;;;;;;5006036;28;20660;-72
2022/09/28 02:48:03;;;;;;;0.10;0.10;;;;;;;;;;5004479;28;20747;-71
2022/09/28 02:50:39;;;;;;;0.00;0.00;;;;;;;;;;5043927;28;21207;-71
2022/09/28 02:53:21;;;;;;;0.10;0.10;;;;;;;;;;5009877;28;20654;-72
2022/09/28 02:55:55;;;;;;;0.00;0.00;;;;;;;;;;5011921;28;20678;-70
2022/09/28 02:58:29;;;;;;;0.00;0.00;;;;;;;;;;5007974;28;20623;-72
2022/09/28 03:01:01;;;;;;;0.10;0.10;;;;;;;;;;5008106;28;20662;-71
2022/09/28 03:03:34;;;;;;;0.00;0.00;;;;;;;;;;5007569;28;20638;-69
2022/09/28 03:06:04;;;;;;;0.10;0.10;;;;;;;;;;5007942;28;20671;-71
2022/09/28 03:08:39;;;;;;;0.07;0.07;;;;;;;;;;5004210;28;20706;-72
2022/09/28 03:11:11;;;;;;;0.10;0.10;;;;;;;;;;5037766;28;20634;-72
2022/09/28 03:13:39;;;;;;;0.07;0.07;;;10.40;99.90;;;;;;5007283;28;20654;-72
2022/09/28 03:16:08;;;;;;;0.00;0.00;;;9.60;99.90;;;;;;5007671;28;20655;-72
2022/09/28 03:18:37;;;;;;;0.10;0.10;;;9.50;99.90;;;;;;5006620;28;20619;-72
2022/09/28 03:21:06;;;;;;;0.00;0.00;;;9.50;99.90;;;;;;5020300;28;20627;-72
2022/09/28 03:23:33;;;;;;;0.00;0.00;;;9.50;99.90;;;;;;5007105;28;20620;-72
2022/09/28 03:26:01;;;;;;;0.00;0.00;;;9.40;99.90;;;;;;5007224;28;20693;-72
2022/09/28 03:28:29;;;;;;;0.10;0.10;;;9.40;99.90;;;;;;5006997;28;20631;-70
2022/09/28 03:30:57;;;;;;;0.10;0.10;;;9.40;99.90;;;;;;5004840;28;20636;-72
2022/09/28 03:33:24;;;;;;;0.00;0.00;;;;;;;;;;5007117;28;20626;-72
2022/09/28 03:35:53;;;;;;;0.00;0.00;;;;;;;;;;5006993;28;20701;-72
2022/09/28 03:38:21;;;;;;;0.10;0.10;;;;;;;;;;5012492;28;20671;-72
2022/09/28 03:40:55;;;;;;;0.00;0.00;;;;;;;;;;5006723;28;20623;-72
2022/09/28 03:43:23;;;;;;;0.10;0.10;;;;;;;;;;5007654;28;20619;-71
2022/09/28 03:45:53;;;;;;;0.10;0.10;;;;;;;;;;5003557;28;20671;-73
2022/09/28 03:48:22;;;;;;;0.10;0.10;;;;;;;;;;5005639;28;20623;-72
2022/09/28 03:50:49;;;;;;;0.00;0.00;;;;;;;;;;5038694;28;20659;-71
2022/09/28 03:53:18;;;;;;;0.10;0.10;;;;;;;;;;5009104;28;20623;-71
2022/09/28 03:55:46;;;;;;;0.10;0.10;;;;;;;;;;5008918;28;20647;-71
2022/09/28 03:58:13;;;;;;;0.00;0.00;;;;;;;;;;5008239;28;20634;-72
2022/09/28 04:00:41;;;;;;;0.10;0.10;;;;;;;;;;5008131;28;21339;-71
2022/09/28 04:03:09;;;;;;;0.00;0.00;;;;;;;;;;5009443;28;20629;-71
2022/09/28 04:05:36;;;;;;;0.10;0.10;;;;;;;;;;5006171;28;21033;-72
2022/09/28 04:08:04;;;;;;;0.00;0.00;;;;;;;;;;5007601;28;20631;-72
2022/09/28 04:10:32;;;;;;;0.00;0.00;;;;;;;;;;5006404;28;20754;-72
2022/09/28 04:13:00;;;;;;;0.10;0.10;;;;;;;;;;5006591;28;20714;-72
2022/09/28 04:15:28;;;;;;;0.10;0.10;;;;;;;;;;5011250;28;20652;-73
2022/09/28 04:17:55;;;;;;;0.10;0.10;;;;;;;;;;5006646;28;20666;-71
2022/09/28 04:20:47;;;;;;;0.00;0.00;;;;;;;;;;5004140;28;20612;-72
2022/09/28 04:23:15;;;;;;;0.10;0.10;;;;;;;;;;5005153;28;21218;-72
2022/09/28 04:25:47;;;;;;;0.10;0.10;;;;;;;;;;5005045;28;20669;-72
2022/09/28 04:30:59;;;;;;;0.10;0.10;;;;;;;;;;5005531;28;20615;-71
2022/09/28 04:33:27;;;;;;;0.10;0.10;;;;;;;;;;5028986;28;20636;-70
2022/09/28 04:35:54;;;;;;;0.10;0.10;;;;;;;;;;5026473;28;20682;-72
2022/09/28 04:38:21;;;;;;;0.10;0.10;;;;;;;;;;5028573;28;20620;-72
2022/09/28 04:40:50;;;;;;;0.10;0.10;;;;;;;;;;5010448;28;20628;-72
2022/09/28 04:43:18;;;;;;;0.10;0.10;;;;;;;;;;5025998;28;20721;-72
2022/09/28 04:45:45;;;;;;;0.00;0.00;;;;;;;;;;5027224;28;20670;-72
2022/09/28 04:48:13;;;;;;;0.10;0.10;;;;;;;;;;5030337;28;20627;-72
2022/09/28 04:50:59;;;;;;;0.00;0.00;;;;;;;;;;5029805;28;20722;-71
2022/09/28 04:53:28;;;;;;;0.00;0.00;;;;;;;;;;4999076;28;20627;-72
2022/09/28 04:55:59;;;;;;;0.10;0.10;;;;;;;;;;5028437;28;20647;-71
2022/09/28 04:58:27;;;;;;;0.00;0.00;;;;;;;;;;5029014;28;20628;-72
2022/09/28 05:00:57;;;;;;;0.00;0.00;;;;;;;;;;4992836;28;20713;-72
2022/09/28 05:03:44;;;;;;;0.07;0.07;;;;;;;;;;4992776;28;20608;-72
2022/09/28 05:06:30;;;;;;;0.10;0.10;;;;;;;;;;4995898;28;20678;-71
2022/09/28 05:09:05;;;;;;;0.10;0.10;;;;;;;;;;4995423;28;20635;-72
2022/09/28 05:11:34;;;;;;;0.00;0.00;;;;;;;;;;5029240;28;20678;-71
2022/09/28 05:14:04;;;;;;;0.10;0.10;;;;;;;;;;5030723;28;20633;-72
2022/09/28 05:16:33;;;;;;;0.10;0.10;;;;;;;;;;5025144;28;20658;-71
2022/09/28 05:19:29;;;;;;;0.00;0.00;;;;;;;;;;4996362;28;20630;-70
2022/09/28 05:22:05;;;;;;;0.10;0.10;;;;;;;;;;5001199;28;20734;-72
2022/09/28 05:24:39;;;;;;;0.00;0.00;;;;;;;;;;5000226;28;20661;-71
2022/09/28 05:27:08;;;;;;;0.07;0.07;;;;;;;;;;5027650;28;20690;-72
2022/09/28 05:29:36;;;;;;;0.10;0.10;;;;;;;;;;5003064;28;20628;-72
2022/09/28 05:32:22;;;;;;;0.10;0.10;;;;;;;;;;4995924;28;20599;-71
2022/09/28 05:35:06;;;;;;;0.00;0.00;;;;;;;;;;5024771;28;20662;-71
2022/09/28 05:37:41;;;;;;;0.07;0.07;;;;;;;;;;5024445;28;20620;-71
2022/09/28 05:40:09;;;;;;;0.00;0.00;;;;;;;;;;4995517;28;20620;-71
2022/09/28 05:42:40;;;;;;;0.10;0.10;;;;;;;;;;5026815;28;21275;-71
2022/09/28 05:45:08;;;;;;;0.10;0.10;;;;;;;;;;5025730;28;20751;-71
2022/09/28 05:47:38;;;;;;;0.00;0.00;;;;;;;;;;5028465;28;20667;-71
2022/09/28 05:50:07;;;;;;;0.07;0.07;;;;;;;;;;5002117;28;20615;-71
2022/09/28 05:52:34;;;;;;;0.10;0.10;;;;;;;;;;5016784;28;20623;-70
2022/09/28 05:55:03;;;;;;;0.10;0.10;;;;;;;;;;5028004;28;20702;-69
2022/09/28 05:57:31;;;;;;;0.10;0.10;;;;;;;;;;4997579;28;20857;-70
2022/09/28 06:00:00;;;;;;;0.00;0.00;;;;;;;;;;5026876;28;20821;-71
2022/09/28 06:02:27;;;;;;;0.10;0.10;;;;;;;;;;5026927;28;20662;-69
2022/09/28 06:04:55;;;;;;;0.10;0.10;;;;;;;;;;5028848;28;20702;-71
2022/09/28 06:07:22;;;;;;;0.10;0.10;;;;;;;;;;5004093;28;20660;-70
2022/09/28 06:09:50;;;;;;;0.10;0.10;;;;;;;;;;5031104;28;20642;-70
2022/09/28 06:12:21;;;;;;;0.10;0.10;;;;;;;;;;5005925;28;20698;-70
2022/09/28 06:14:54;;;;;;;0.10;0.10;;;;;;;;;;5031487;28;20640;-71
2022/09/28 06:17:23;;;;;;;0.10;0.10;;;;;;;;;;5031061;28;20615;-72
2022/09/28 06:20:11;;;;;;;0.03;0.03;;;;;;;;;;4997079;28;20619;-73
2022/09/28 06:22:56;;;;;;;0.00;0.00;;;;;;;;;;5033324;28;20707;-72
2022/09/28 06:25:26;;;;;;;0.10;0.10;;;;;;;;;;5031778;28;20662;-71
2022/09/28 06:27:57;;;;;;;0.10;0.10;;;;;;;;;;5031025;28;20655;-70
2022/09/28 06:30:26;;;;;;;0.10;0.10;;;;;;;;;;5032497;28;20656;-71
2022/09/28 06:32:57;;;;;;;0.10;0.10;;;;;;;;;;5006551;28;20608;-72
2022/09/28 06:35:25;;;;;;;0.10;0.10;;;;;;;;;;5034586;28;20661;-71
2022/09/28 06:37:53;;;;;;;0.10;0.10;;;;;;;;;;5004362;28;20600;-71
2022/09/28 06:40:20;;;;;;;0.10;0.10;;;;;;;;;;5038125;28;20713;-72
2022/09/28 06:42:55;;;;;;;0.10;0.10;;;;;;;;;;5036340;28;20645;-72
2022/09/28 06:45:53;;;;;;;0.10;0.10;;;;;;;;;;5050171;28;20743;-72
2022/09/28 06:48:26;;;;;;;0.00;0.00;;;;;;;;;;5030441;28;20726;-72
2022/09/28 06:50:54;;;;;;;0.10;0.10;;;;;;;;;;5015912;28;20683;-72
2022/09/28 06:53:28;;;;;;;0.00;0.00;;;;;;;;;;5016990;28;20631;-72
2022/09/28 06:56:10;;;;;;;0.10;0.10;;;;;;;;;;4997634;28;20741;-73
2022/09/28 06:58:37;;;;;;;0.00;0.00;;;;;;;;;;5030277;28;20702;-73
2022/09/28 07:01:05;;;;;;;0.00;0.00;;;;;;;;;;5032280;28;20635;-69
2022/09/28 07:03:46;;;;;;;0.03;0.03;;;;;;;;;;5032863;28;20623;-69
2022/09/28 07:06:47;;;;;;;0.10;0.10;;;;;;;;;;5020211;28;21045;-69
2022/09/28 07:09:53;;;;;;;0.00;0.00;;;;;;;;;;5033328;28;20635;-69
2022/09/28 07:12:39;;;;;;;0.00;0.00;;;;;;;;;;5000801;28;20669;-69
2022/09/28 07:15:22;;;;;;;0.00;0.00;;;;;;;;;;5030708;28;20655;-70
2022/09/28 07:17:50;;;;;;;0.10;0.10;;;;;;;;;;5031422;28;20662;-69
2022/09/28 07:20:19;;;;;;;0.10;0.10;;;;;;;;;;5013794;28;20995;-71
2022/09/28 07:22:47;;;;;;;0.10;0.10;;;;;;;;;;5010262;28;20623;-71
2022/09/28 07:25:19;;;;;;;0.00;0.00;;;;;;;;;;5005714;28;20725;-71
2022/09/28 07:28:22;;;;;;;0.10;0.10;;;;;;;;;;5007998;28;20667;-71
2022/09/28 07:31:10;;;;;;;0.00;0.00;;;;;;;;;;4999098;28;20707;-70
2022/09/28 07:33:52;;;;;;;0.10;0.10;;;;;;;;;;5031918;28;20713;-69
2022/09/28 07:36:29;;;;;;;0.00;0.00;;;;;;;;;;5030070;28;20652;-70
2022/09/28 07:38:56;;;;;;;0.00;0.00;;;;;;;;;;5026922;28;20624;-69
2022/09/28 07:41:31;;;;;;;0.10;0.10;;;;;;;;;;5012558;28;20735;-70
2022/09/28 07:44:04;;;;;;;0.10;0.10;;;;;;;;;;5028854;28;20614;-71
2022/09/28 07:46:33;;;;;;;0.10;0.10;;;;;;;;;;5029310;28;20670;-70
2022/09/28 07:49:05;;;;;;;0.10;0.10;;;;;;;;;;5003777;28;20628;-69
2022/09/28 07:51:37;;;;;;;0.00;0.00;;;;;;;;;;5004757;28;20793;-70
2022/09/28 07:54:38;;;;;;;0.10;0.10;;;;;;;;;;5027685;28;20623;-72
2022/09/28 07:57:19;;;;;;;0.10;0.10;;;;;;;;;;5027596;28;20811;-71
2022/09/28 07:59:54;;;;;;;0.10;0.10;;;;;;;;;;5029476;28;20631;-71
2022/09/28 08:02:40;;;;;;;0.10;0.10;;;;;;;;;;4995950;28;20748;-71
2022/09/28 08:05:09;;;;;;;0.10;0.10;;;;;;;;;;5030178;28;20666;-70
2022/09/28 08:07:38;;;;;;;0.10;0.10;;;;;;;;;;5031811;28;21255;-69
2022/09/28 08:10:09;;;;;;;0.00;0.00;;;;;;;;;;5026903;28;20612;-71
2022/09/28 08:13:01;;;;;;;0.10;0.10;;;;;;;;;;5030424;28;20627;-71
2022/09/28 08:15:40;;;;;;;0.10;0.10;;;;;;;;;;5025251;28;20642;-70
2022/09/28 08:18:17;;;;;;;0.10;0.10;;;;;;;;;;5025776;28;20652;-70
2022/09/28 08:23:31;;;;;;;0.00;0.00;;;;;;;;;;4995985;28;20624;-69
2022/09/28 08:25:58;;;;;;;0.10;0.10;;;;;;;;;;5002741;28;20656;-69
2022/09/28 08:28:26;;;;;;;0.10;0.10;;;;;;;;;;5029262;28;20790;-71
2022/09/28 08:30:59;;;;;;;0.00;0.00;;;;;;;;;;4994655;28;20632;-71
2022/09/28 08:33:27;;;;;;;0.10;0.10;;;;;;;;;;4996293;28;20623;-71
2022/09/28 08:36:13;;;;;;;0.10;0.10;;;;;;;;;;4994282;28;20638;-70
2022/09/28 08:39:11;;;;;;;0.10;0.10;;;;;;;;;;4996666;28;20612;-70
2022/09/28 08:42:03;;;;;;;0.10;0.10;;;;;;;;;;4997691;28;20610;-71
2022/09/28 08:44:47;;;;;;;0.10;0.10;;;;;;;;;;5028449;28;20638;-69
2022/09/28 08:50:33;;;;;;;0.10;0.10;;;;;;;;;;5003683;28;20655;-70
2022/09/28 08:53:11;;;;;;;0.10;0.10;;;;;;;;;;5028504;28;21283;-70
2022/09/28 08:55:53;;;;;;;0.10;0.10;;;;;;;;;;5012097;28;20725;-70
2022/09/28 08:58:22;;;;;;;0.10;0.10;;;;;;;;;;4997415;28;20611;-70
2022/09/28 09:00:51;;;;;;;0.10;0.10;;;;;;;;;;5000752;28;20643;-69
2022/09/28 09:03:22;;;;;;;0.10;0.10;;;;;;;;;;4994870;28;20687;-70
2022/09/28 09:06:10;;;;;;;0.10;0.10;;;;;;;;;;5003942;28;20656;-70
2022/09/28 09:09:00;;;;;;;0.10;0.10;;;;;;;;;;5027971;28;20612;-70
2022/09/28 09:11:37;;;;;;;0.00;0.00;;;;;;;;;;5030003;28;20639;-70
2022/09/28 09:14:14;;;;;;;0.03;0.03;;;;;;;;;;5011394;28;20620;-69
2022/09/28 09:16:54;;;;;;;0.00;0.00;;;;;;;;;;5027929;28;20229;-70
2022/09/28 09:19:35;;;;;;;0.10;0.10;;;;;;;;;;4995200;28;20995;-71
2022/09/28 09:22:16;;;;;;;0.00;0.00;;;;;;;;;;5028470;28;20623;-73
2022/09/28 09:24:48;;;;;;;0.00;0.00;;;;;;;;;;5003883;28;20663;-71
2022/09/28 09:27:27;;;;;;;0.10;0.10;;;;;;;;;;5020695;22;20795;-73
2022/09/28 09:30:03;;;;;;;0.10;0.10;;;;;;;;;;4977922;28;20614;-75
2022/09/28 09:32:40;;;;;;;0.00;0.00;;;;;;;;;;4992992;28;20691;-73
2022/09/28 09:35:14;;;;;;;0.10;0.10;;;;;;;;;;4978469;28;20644;-71
2022/09/28 09:38:16;;;;;;;0.00;0.00;;;;;;;;;;4977857;28;20632;-74
2022/09/28 09:40:58;;;;;;;0.10;0.10;;;;;;;;;;4979507;28;21220;-73
2022/09/28 09:43:59;;;;;;;0.10;0.10;;;;;;;;;;4979794;28;20620;-72
2022/09/28 09:46:47;;;;;;;0.00;0.00;;;;;;;;;;4980268;28;20725;-73
2022/09/28 09:49:20;;;;;;;0.00;0.00;;;;;;;;;;4986824;28;20621;-72
2022/09/28 09:51:50;;;;;;;0.10;0.10;;;;;;;;;;4996446;28;20632;-73
2022/09/28 09:54:22;;;;;;;0.07;0.07;;;;;;;;;;4978234;28;20621;-72
2022/09/28 09:56:53;;;;;;;0.00;0.00;;;;;;;;;;4987692;28;20631;-72
2022/09/28 09:59:45;;;;;;;0.10;0.10;;;;;;;;;;4981841;28;20607;-73
2022/09/28 10:02:24;;;;;;;0.00;0.00;;;;;;;;;;4995515;28;20639;-72
2022/09/28 10:05:03;;;;;;;0.00;0.00;;;;;;;;;;4995452;28;20676;-73
2022/09/28 10:07:41;;;;;;;0.10;0.10;;;;;;;;;;4983238;28;20819;-72
2022/09/28 10:10:13;;;;;;;0.00;0.00;;;;;;;;;;4996042;28;20735;-73
2022/09/28 10:12:48;;;;;;;0.00;0.00;;;;;;;;;;4978342;28;20718;-73
2022/09/28 10:15:21;;;;;;;0.10;0.10;;;;;;;;;;4994671;28;20687;-73
2022/09/28 10:18:05;;;;;;;0.00;0.00;;;;;;;;;;4978128;28;20296;-72
2022/09/28 10:20:51;;;;;;;0.07;0.07;;;;;;;;;;4996003;22;20255;-72
2022/09/28 10:23:32;;;;;;;0.00;0.00;;;;;;;;;;4992422;28;20670;-72
2022/09/28 10:26:03;;;;;;;0.10;0.10;;;;;;;;;;4977067;28;20663;-72
2022/09/28 10:28:34;;;;;;;0.00;0.00;;;;;;;;;;4977537;28;20725;-73
2022/09/28 10:31:25;;;;;;;0.00;0.00;;;;;;;;;;4995672;28;21193;-72
2022/09/28 10:33:54;;;;;;;0.00;0.00;;;;;;;;;;4994594;28;20624;-73
2022/09/28 10:36:23;;;;;;;0.00;0.00;;;;;;;;;;4979790;28;20664;-73
2022/09/28 10:38:52;;;;;;;0.00;0.00;;;;;;;;;;4977478;28;20632;-73
2022/09/28 10:41:27;;;;;;;0.00;0.00;;;;;;;;;;4978501;28;20228;-73
2022/09/28 10:44:05;;;;;;;0.10;0.10;;;;;;;;;;4978410;28;20671;-73
2022/09/28 10:46:40;;;;;;;0.00;0.00;;;;;;;;;;4994227;28;20671;-73
2022/09/28 10:49:16;;;;;;;0.10;0.10;;;;;;;;;;4987302;28;20682;-72
2022/09/28 10:51:50;;;;;;;0.00;0.00;;;;;;;;;;4976232;28;20624;-73
2022/09/28 10:54:24;;;;;;;0.00;0.00;;;;;;;;;;4995304;28;20669;-73
2022/09/28 10:56:53;;;;;;;0.00;0.00;;;;;;;;;;4977908;28;20624;-73
2022/09/28 10:59:40;;;;;;;0.00;0.00;;;;;;;;;;4994480;28;20620;-72
2022/09/28 11:02:30;;;;;;;0.10;0.10;;;;;;;;;;4977775;28;20204;-73
2022/09/28 11:05:04;;;;;;;0.10;0.10;;;;;;;;;;4995261;28;20706;-72
2022/09/28 11:07:45;;;;;;;0.10;0.10;;;;;;;;;;4977594;28;20213;-72
2022/09/28 11:10:20;;;;;;;0.10;0.10;;;;;;;;;;4978602;28;20615;-73
2022/09/28 11:12:50;;;;;;;0.10;0.10;;;;;;;;;;4992032;28;20676;-73
2022/09/28 11:15:20;;;;;;;0.00;0.00;;;;;;;;;;4993778;28;20295;-73
2022/09/28 11:17:51;;;;;;;0.10;0.10;;;;;;;;;;4977483;28;20348;-72
2022/09/28 11:20:31;;;;;;;0.00;0.00;;;;;;;;;;4976665;28;20702;-73
2022/09/28 11:23:02;;;;;;;0.10;0.10;;;;;;;;;;4993072;28;20201;-73
2022/09/28 11:25:34;;;;;;;0.10;0.10;;;;;;;;;;4977825;28;20317;-72
2022/09/28 11:28:05;;;;;;;0.00;0.00;;;;;;;;;;4978999;28;20229;-73
2022/09/28 11:30:34;;;;;;;0.07;0.07;;;;;;;;;;4977258;28;20627;-72
2022/09/28 11:33:29;;;;;;;0.10;0.10;;;;;;;;;;4978203;28;20215;-73
2022/09/28 11:36:41;;;;;;;0.07;0.07;;;;;;;;;;4984528;28;20225;-73
2022/09/28 11:39:12;;;;;;;0.00;0.00;;;;;;;;;;4991821;28;20625;-72
2022/09/28 11:41:49;;;;;;;0.10;0.10;;;;;;;;;;4977969;28;20198;-72
2022/09/28 11:44:26;;;;;;;0.00;0.00;;;;;;;;;;4978009;28;20212;-72
2022/09/28 11:47:10;;;;;;;0.00;0.00;;;;;;;;;;4978116;28;20206;-72
2022/09/28 11:49:41;;;;;;;0.10;0.10;;;;;;;;;;4992407;28;20319;-72
2022/09/28 11:52:14;;;;;;;0.10;0.10;;;;;;;;;;4996208;28;20287;-73
2022/09/28 11:54:46;;;;;;;0.00;0.00;;;;;;;;;;4993688;28;20697;-73
2022/09/28 11:57:16;;;;;;;0.07;0.07;;;;;;;;;;4975585;28;20224;-73
2022/09/28 11:59:48;;;;;;;0.00;0.00;;;;;;;;;;4993136;28;20294;-73
2022/09/28 12:02:18;;;;;;;0.00;0.00;;;;;;;;;;4994872;28;20237;-73
2022/09/28 12:04:53;;;;;;;0.10;0.10;;;;;;;;;;4977266;28;20235;-73
2022/09/28 12:07:25;;;;;;;0.10;0.10;;;;;;;;;;4975608;28;20231;-73
2022/09/28 12:09:55;;;;;;;0.00;0.00;;;;;;;;;;4978113;28;20201;-72
2022/09/28 12:12:25;;;;;;;0.00;0.00;;;;;;;;;;4975668;28;20224;-73
2022/09/28 12:14:57;;;;;;;0.00;0.00;;;;;;;;;;4975986;28;20292;-75
2022/09/28 12:17:26;;;;;;;0.00;0.00;;;;;;;;;;4994209;28;20201;-73
2022/09/28 12:19:58;;;;;;;0.03;0.03;;;;;;;;;;4979175;28;20217;-73
2022/09/28 12:22:31;;;;;;;0.10;0.10;;;;;;;;;;4995316;28;20203;-73
2022/09/28 12:24:58;;;;;;;0.00;0.00;;;;;;;;;;4976996;28;20276;-73
2022/09/28 12:27:28;;;;;;;0.00;0.00;;;;;;;;;;4975405;28;20255;-74
2022/09/28 12:29:58;;;;;;;0.00;0.00;;;;;;;;;;4993236;28;20312;-74
2022/09/28 12:32:42;;;;;;;0.00;0.00;;;;;;;;;;4978120;28;20207;-73
2022/09/28 12:35:15;;;;;;;0.10;0.10;;;;;;;;;;4972363;28;20225;-73
2022/09/28 12:37:51;;;;;;;0.00;0.00;;;;;;;;;;4976602;28;20198;-73
2022/09/28 12:40:26;;;;;;;0.00;0.00;;;;;;;;;;4973853;28;20208;-73
2022/09/28 12:43:07;;;;;;;0.00;0.00;;;;;;;;;;4992471;28;20215;-73
2022/09/28 12:45:44;;;;;;;0.00;0.00;;;;;;;;;;4975991;28;20225;-73
2022/09/28 12:48:22;;;;;;;0.00;0.00;;;;;;;;;;4979056;28;20227;-73
2022/09/28 12:50:56;;;;;;;0.10;0.10;;;;;;;;;;4975541;28;21302;-73
2022/09/28 12:53:34;;;;;;;0.00;0.00;;;;;;;;;;4976940;28;20232;-73
2022/09/28 12:56:05;;;;;;;0.00;0.00;;;;;;;;;;4974574;28;20347;-73
2022/09/28 12:58:39;;;;;;;0.10;0.10;;;;;;;;;;4975688;28;20229;-73
2022/09/28 13:01:14;;;;;;;0.03;0.03;;;;;;;;;;4975022;28;20209;-73
2022/09/28 13:03:48;;;;;;;0.00;0.00;;;;;;;;;;4977236;28;20207;-73
2022/09/28 13:06:33;;;;;;;0.00;0.00;;;;;;;;;;4990511;28;20224;-73
2022/09/28 13:09:13;;;;;;;0.00;0.00;;;;;;;;;;4977565;28;20315;-73
2022/09/28 13:11:44;;;;;;;0.00;0.00;;;;;;;;;;4977890;28;20627;-73
2022/09/28 13:14:26;;;;;;;0.00;0.00;;;;;;;;;;4978431;28;20610;-73
2022/09/28 13:16:57;;;;;;;0.10;0.10;;;;;;;;;;4992082;28;20273;-73
2022/09/28 13:19:31;;;;;;;0.10;0.10;;;;;;;;;;4993607;28;20213;-73
2022/09/28 13:22:03;;;;;;;0.00;0.00;;;;;;;;;;4992567;28;20209;-73
2022/09/28 13:24:32;;;;;;;0.00;0.00;;;;;;;;;;4974966;28;20214;-73
2022/09/28 13:29:56;;;;;;;0.00;0.00;;;;;;;;;;4966682;28;20232;-74
2022/09/28 13:32:25;;;;;;;0.00;0.00;;;;;;;;;;4976146;28;20646;-75
2022/09/28 13:34:53;;;;;;;0.00;0.00;;;;;;;;;;4975746;28;20218;-75
2022/09/28 13:37:24;;;;;;;0.00;0.00;;;;;;;;;;4976591;28;20278;-75
2022/09/28 13:39:53;;;;;;;0.00;0.00;;;;;;;;;;4975476;28;20305;-74
2022/09/28 13:42:35;;;;;;;0.00;0.00;;;;;;;;;;4976416;28;20205;-75
2022/09/28 13:45:18;;;;;;;0.03;0.03;;;;;;;;;;4977514;28;20225;-75
2022/09/28 13:47:56;;;;;;;0.10;0.10;;;;;;;;;;4975572;28;20287;-74
2022/09/28 13:50:28;;;;;;;0.00;0.00;;;;;;;;;;4975160;28;20299;-74
2022/09/28 13:53:02;;;;;;;0.00;0.00;;;;;;;;;;4979455;28;20198;-74
2022/09/28 13:55:35;;;;;;;0.10;0.10;;;;;;;;;;4974256;28;20229;-74
2022/09/28 13:58:04;;;;;;;0.10;0.10;;;;;;;;;;4975480;28;20201;-74
2022/09/28 14:00:36;;;;;;;0.00;0.00;;;;;;;;;;4974314;28;20224;-74
2022/09/28 14:03:12;;;;;;;0.00;0.00;;;;;;;;;;4992864;28;20205;-74
2022/09/28 14:05:47;;;;;;;0.00;0.00;;;;;;;;;;4974997;28;20229;-74
2022/09/28 14:08:27;;;;;;;0.00;0.00;;;;;;;;;;4976224;28;20287;-72
2022/09/28 14:10:55;;;;;;;0.10;0.10;;;;;;;;;;4991815;28;20201;-72
2022/09/28 14:13:42;;;;;;;0.00;0.00;;;;;;;;;;4977473;28;20201;-73
2022/09/28 14:16:20;;;;;;;0.00;0.00;;;;;;;;;;4975307;28;20229;-72
2022/09/28 14:18:50;;;;;;;0.10;0.10;;;;;;;;;;4979418;28;20201;-72
2022/09/28 14:21:38;;;;;;;0.00;0.00;;;;;;;;;;4978181;28;20360;-72
2022/09/28 14:24:12;;;;;;;0.00;0.00;;;;;;;;;;4994227;28;20205;-72
2022/09/28 14:26:47;;;;;;;0.00;0.00;;;;;;;;;;4977449;28;20255;-71
2022/09/28 14:29:27;;;;;;;0.00;0.00;;;;;;;;;;4982187;28;20228;-72
2022/09/28 14:31:57;;;;;;;0.00;0.00;;;;;;;;;;4983864;28;20197;-72
2022/09/28 14:34:27;;;;;;;0.00;0.00;;;;;;;;;;4973996;28;20241;-71
2022/09/28 14:42:29;;;;;;;0.00;0.00;;;;;;;;;;4998676;28;20667;-71
2022/09/28 14:45:16;;;;;;;0.00;0.00;;;;;;;;;;4999790;28;20221;-72
2022/09/28 14:47:44;;;;;;;0.03;0.03;;;;;;;;;;4998004;28;20201;-72
2022/09/28 14:50:22;;;;;;;0.10;0.10;;;;;;;;;;4982882;28;20221;-72
2022/09/28 14:52:54;;;;;;;0.00;0.00;;;;;;;;;;4982356;28;20296;-72
2022/09/28 14:55:29;;;;;;;0.00;0.00;;;;;;;;;;4982456;28;20227;-71
2022/09/28 14:57:58;;;;;;;0.10;0.10;;;;;;;;;;4982273;28;20288;-72
2022/09/28 15:00:28;;;;;;;0.00;0.00;;;;;;;;;;4983467;28;20268;-72
2022/09/28 15:02:56;;;;;;;0.10;0.10;;;;;;;;;;4984260;28;20199;-72
2022/09/28 15:05:27;;;;;;;0.00;0.00;;;;;;;;;;4980030;28;20225;-71
2022/09/28 15:07:56;;;;;;;0.00;0.00;;;;;;;;;;4999752;28;20224;-71
2022/09/28 15:10:27;;;;;;;0.00;0.00;;;;;;;;;;4984796;28;20232;-70
2022/09/28 15:12:56;;;;;;;0.00;0.00;;;;;;;;;;4985381;28;20197;-72
2022/09/28 15:15:28;;;;;;;0.00;0.00;;;;;;;;;;4999225;28;20217;-71
2022/09/28 15:18:02;;;;;;;0.00;0.00;;;;;;;;;;4982761;28;20542;-72
2022/09/28 15:20:33;;;;;;;0.00;0.00;;;;;;;;;;4982188;28;20209;-71
2022/09/28 15:23:00;;;;;;;0.07;0.07;;;;;;;;;;4998181;28;20209;-71
2022/09/28 15:25:29;;;;;;;0.00;0.00;;;;;;;;;;5000192;28;20256;-72
2022/09/28 15:28:01;;;;;;;0.00;0.00;;;;;;;;;;4982362;28;20206;-71
2022/09/28 15:30:30;;;;;;;0.00;0.00;;;;;;;;;;4983609;28;20301;-71
2022/09/28 15:34:50;;;;;;;0.07;0.07;;;;;;;;;;4982488;28;20193;-71